Fire Weather Observation
Issued by NWS Grand Junction, CO

Home | Current Version | Previous Version | Text Only | Print | Product List | Glossary Off
Versions: 1 2 3 4 5 6 7 8 9 10 11 12 13 14 15 16 17 18 19 20 21 22 23 24 25 26 27 28 29 30 31 32 33 34 35

000
SHUS65 KGJT 212016
FWOGJT

DAILY FIRE WEATHER OBSERVATION
NATIONAL WEATHER SERVICE GRAND JUNCTION CO
212 PM MDT SAT MAY 21 2016

STATE OF THE WEATHER (W)               3
DRY BULB TEMPERATURE                   73   DEGREES FAHRENHEIT
RELATIVE HUMIDITY (RH)                 19   PERCENT
LIGHTNING ACTIVITY LEVEL
  (LAL - MIDNIGHT TO 2 PM)             1
WIND DIRECTION                         180  DEGREES (C IF CALM)
WIND SPEED                             13   MPH
MAX TEMP (2 PM - 2 PM)                 79   DEGREES FAHRENHEIT
MIN TEMP (2 PM - 2 PM)                 56   DEGREES FAHRENHEIT
MAX RH (2 PM - 2 PM)                   41   PERCENT
MIN RH (2 PM - 2 PM)                   19   PERCENT
PCPN DURATION                          0.0  HOURS
PCPN AMT (2 PM - 2 PM)                 0.0  INCHES
LAL (2 PM - 2 PM)                      1

$$

METAR KGJT 211953Z 20011KT 10SM CLR 23/M02 A2982 RMK AO2 SLP036
      T02281017 $



USA.gov is the U.S. government's official web portal to all federal, state and local government web resources and services.